Portada
METAR-TAF:

METAR-TAF

Aeropuertos :

Lossiemouth, Escocia

latitud: 57-43N, longitud: 003-19W, altitud: 13 m

Observación

El informe se hizo hace 59 minutos, a las 22:50 UTC
Viento 6 kt del sur
Temperatura 14°C
Humedad 77%
Presión 1004 hPa
Visibilidad 10 km o más
sin nubes por debajo de 1500 m y sin presencia de cumulonimbus.

METAR: EGQS 212250Z 18006KT CAVOK 14/10 Q1004 RMK BLU

Hora: 00:49 (23:49 UTC)

Pronóstico

El informe se hizo hace 1 hora y 4 minutos, a las 22:45 UTC
Pronóstico válido del 22 a las 00 UTC al 22 a las 18 UTC
Viento 6 kt del suroeste
Visibilidad 10 km o más
Nubes dispersas a una altura de 4500 ft
Probabilidad 30% :
Temporalmente
del 22 a las 01 UTC al 22 a las 07 UTC
Nubes dispersas a una altura de 2000 ft

TAF: EGQS 212245Z 2200/2218 22006KT 9999 SCT045 PROB30 TEMPO 2201/2207 SCT020

Observaciones y pronósticos meteorológicos de más de 4000 aeropuertos (mensajes METAR y TAF).

Los puntos amarillos y rojos representan las estaciones disponibles.

Ponga el ratón en el punto deseado para ver el nombre de la estación.

Haga clic para ver las observaciones y los pronósticos meteorológicos.

Para cambiar el mapa : haga clic en los botones verdes con una cruz de color negro para hacer un zoom, en el botón verde con un guión para alejar o en las flechas verdes para mapas adyacentes.


METAR-TAF: